ロサンゼルス の空港の天気 - METARとTAF

ロサンゼルス国際空港 ( KLAX / LAX ) - アメリカ カリフォルニア州ロサンゼルス
飛行場実況気象(Metar)
観測時間08/23 14:53 PDT (08/23 21:53 UTC)
風向・風速西南西 6m/s
視程10km以上
天気現象
少しの雲 雲底高度 3050m
気温25℃
湿度58%
気圧1010.8hPa
METARKLAX 232153Z 25012KT 10SM FEW100 25/16 A2985 RMK AO2 WSHFT 2044 SLP108 T02500161 VISNO RWY24 $
過去の天気等 Google飛行場航空写真 Wunderground天気予報

過去48時間のMETAR

飛行場予報(TAF)
発表時間: 8/23 13:16 PDT (8/23 20:16 UTC)
予報対象時間: 23日13時 PDT ~ 24日17時 PDT
風向・風速南南東 3m/s
視程10km以上
少しの雲 雲底高度 760m
23日14時 PDT から
風向・風速西南西 5m/s
視程10km以上
なし
23日20時 PDT から
風向・風速西 3m/s
視程10km以上
なし
23日22時 PDT から
風向・風速不定 2m/s
視程10km以上
全天を覆う雲 雲底高度 370m
24日10時 PDT から
風向・風速西 3m/s
視程10km以上
全天の4割程度の雲 雲底高度 550m
24日12時 PDT から
風向・風速西 5m/s
視程10km以上
なし
KLAX 232016Z 2320/2424 15006KT P6SM FEW025
FM232130 25010KT P6SM SKC
FM240300 26006KT P6SM SKC
FM240500 VRB03KT P6SM OVC012
FM241700 26006KT P6SM SCT018
FM241900 27010KT P6SM SKC